Latest Weather Observations for Cape Wessel

IDD60801

Issued at 6:41 pm CST Monday 23 May 2022 (issued every 10 minutes, with the page automatically refreshed every 10 minutes)

About weather observations | Map of weather stations | Latest weather observations for NT | Other Formats
Station Details ID: 200786 Name: CAPE WESSEL Lat: -11.00 Lon: 136.76 Height: 18.0 m
Data from the previous 72 hours. | See also: Recent months at Cape Wessel
Date/Time
CST
Temp
°C
App
Temp
°C
Dew
Point
°C
Rel
Hum
%
Delta-T
°C
Wind Press
QNH
hPa
Press
MSL
hPa
Rain since
9am
mm
Dir  Spd
km/h
Gust
km/h
Spd
kts
Gust
kts
23/06:30pm 27.9 33.5 23.5 77 3.0 CALM 0 22 0 12 1010.8 1010.7 0.0
23/06:00pm 28.0 33.7 23.8 78 2.9 CALM 0 0 0 0 1010.5 1010.4 0.0
23/05:30pm 28.3 34.0 23.7 76 3.2 CALM 0 0 0 0 1010.2 1010.1 0.0
23/05:00pm 28.4 34.0 23.5 75 3.4 CALM 0 0 0 0 1009.9 1009.8 0.0
23/04:30pm 28.8 34.6 23.9 75 3.4 CALM 0 0 0 0 1009.8 1009.7 0.0
23/04:00pm 28.9 34.6 23.8 74 3.5 CALM 0 0 0 0 1009.6 1009.5 0.0
23/03:30pm 30.3 36.0 23.7 68 4.6 CALM 0 0 0 0 1009.7 1009.6 0.0
23/03:00pm 30.7 36.9 24.6 70 4.3 CALM 0 0 0 0 1009.8 1009.7 0.0
23/02:30pm 31.0 37.5 25.1 71 4.2 CALM 0 0 0 0 1010.0 1009.9 0.0
23/02:00pm 31.1 37.1 24.2 66 4.8 CALM 0 0 0 0 1010.4 1010.3 0.0
23/01:30pm 31.0 36.9 24.1 66 4.8 CALM 0 0 0 0 1010.6 1010.5 0.0
23/01:00pm 31.9 38.2 24.7 65 5.1 CALM 0 0 0 0 1010.9 1010.8 0.0
23/12:30pm 31.3 37.6 24.7 68 4.6 CALM 0 0 0 0 1011.3 1011.2 0.0
23/12:00pm 31.6 37.9 24.7 67 4.9 CALM 0 0 0 0 1011.7 1011.6 0.0
23/11:30am 32.0 38.1 25.6 69 4.6 ESE 4 33 2 18 1011.9 1011.8 0.0
23/11:00am 31.5 33.8 25.1 69 4.5 ESE 22 35 12 19 1012.3 1012.2 0.0
23/10:30am 31.4 32.5 25.0 69 4.5 ESE 28 37 15 20 1012.6 1012.5 0.0
23/10:00am 30.6 30.9 24.3 69 4.4 ESE 30 37 16 20 1012.9 1012.8 0.0
23/09:30am 29.4 30.1 24.3 74 3.5 SE 28 33 15 18 1012.8 1012.7 0.0
23/09:00am 29.8 30.1 24.2 72 3.9 ESE 30 35 16 19 1012.7 1012.6 0.2
23/08:30am 29.1 29.0 23.5 72 3.9 ESE 30 35 16 19 1012.5 1012.4 0.2
23/08:00am 28.5 28.9 23.2 73 3.6 ESE 26 35 14 19 1012.2 1012.1 0.2
23/07:30am 28.1 28.2 23.2 74 3.4 ESE 28 35 15 19 1011.8 1011.7 0.2
23/07:00am 27.6 28.5 23.4 78 2.9 ESE 24 32 13 17 1011.5 1011.4 0.2
23/06:30am 27.4 27.7 23.0 77 3.0 ESE 26 32 14 17 1011.0 1010.9 0.2
23/06:00am 27.3 27.2 22.9 77 3.0 ESE 28 33 15 18 1010.8 1010.7 0.2
23/05:30am 27.3 27.8 22.7 76 3.1 ESE 24 32 13 17 1010.5 1010.4 0.2
23/05:00am 27.2 28.1 22.6 76 3.1 ESE 22 30 12 16 1010.3 1010.2 0.2
23/04:30am 27.3 27.8 22.7 76 3.1 ESE 24 30 13 16 1010.1 1010.0 0.2
23/04:00am 27.6 28.2 22.8 75 3.3 ESE 24 32 13 17 1010.1 1010.0 0.2
23/03:30am 27.6 28.0 22.5 74 3.5 ESE 24 30 13 16 1010.1 1010.0 0.2
23/03:00am 27.5 27.4 22.2 73 3.6 ESE 26 33 14 18 1010.1 1010.0 0.2
23/02:30am 27.5 27.8 22.9 76 3.1 ESE 26 33 14 18 1010.2 1010.1 0.2
23/02:00am 27.5 27.8 22.9 76 3.1 ESE 26 32 14 17 1010.3 1010.2 0.2
23/01:30am 27.6 26.9 22.5 74 3.5 ESE 30 35 16 19 1010.5 1010.4 0.2
23/01:00am 27.4 27.6 23.4 79 2.7 ESE 28 33 15 18 1010.7 1010.6 0.2
23/12:30am 27.4 27.5 23.2 78 2.9 SE 28 37 15 20 1010.9 1010.8 0.2
23/12:00am 27.6 27.2 23.0 76 3.1 SE 30 37 16 20 1010.9 1010.8 0.2
 
Date/Time
CST
Temp
°C
App
Temp
°C
Dew
Point
°C
Rel
Hum
%
Delta-T
°C
Wind Press
QNH
hPa
Press
MSL
hPa
Rain since
9am
mm
Dir  Spd
km/h
Gust
km/h
Spd
kts
Gust
kts
22/11:30pm 27.6 27.3 23.2 77 3.0 ESE 30 35 16 19 1011.1 1011.0 0.2
22/11:00pm 27.6 27.4 23.4 78 2.9 SE 30 39 16 21 1011.2 1011.1 0.2
22/10:30pm 27.3 27.0 23.3 79 2.7 SE 30 37 16 20 1011.1 1011.0 0.2
22/10:00pm 27.7 28.1 23.7 79 2.8 SE 28 37 15 20 1011.3 1011.2 0.2
22/09:30pm 27.6 28.8 23.8 80 2.6 ESE 24 39 13 21 1011.4 1011.3 0.2
22/09:00pm 27.7 28.2 23.3 77 3.0 ESE 26 35 14 19 1011.2 1011.1 0.2
22/08:30pm 27.6 31.5 23.6 79 2.7 SE 9 35 5 19 1011.1 1011.0 0.2
22/08:00pm 27.6 33.1 23.4 78 2.9 CALM 0 35 0 19 1010.8 1010.7 0.2
22/07:30pm 27.7 33.4 23.7 79 2.8 CALM 0 0 0 0 1010.5 1010.4 0.2
22/07:00pm 27.6 32.9 23.0 76 3.1 CALM 0 0 0 0 1010.2 1010.1 0.2
22/06:30pm 27.6 32.8 22.8 75 3.3 CALM 0 0 0 0 1009.8 1009.7 0.2
22/06:00pm 27.6 32.9 23.0 76 3.1 CALM 0 0 0 0 1009.5 1009.4 0.2
22/05:30pm 28.2 33.5 23.1 74 3.5 CALM 0 0 0 0 1009.3 1009.2 0.2
22/05:00pm 28.7 34.7 24.3 77 3.1 CALM 0 0 0 0 1009.3 1009.2 0.2
22/04:30pm 29.1 34.5 23.3 71 4.0 CALM 0 0 0 0 1009.1 1009.0 0.2
22/04:00pm 30.2 36.1 24.1 70 4.2 CALM 0 0 0 0 1009.0 1008.9 0.2
22/03:30pm 30.2 36.0 23.9 69 4.4 CALM 0 0 0 0 1008.9 1008.8 0.2
22/03:00pm 29.8 35.6 24.0 71 4.0 CALM 0 0 0 0 1008.9 1008.8 0.2
22/02:30pm 27.1 32.7 23.6 81 2.4 CALM 0 0 0 0 1009.1 1009.0 0.2
22/02:00pm 30.8 36.6 24.0 67 4.7 CALM 0 0 0 0 1009.3 1009.2 0.0
22/01:30pm 31.7 37.5 24.0 63 5.4 CALM 0 0 0 0 1009.5 1009.4 0.0
22/01:00pm 31.3 37.0 23.7 64 5.3 CALM 0 0 0 0 1010.0 1009.9 0.0
22/12:30pm 31.7 37.5 24.0 63 5.4 CALM 0 0 0 0 1010.5 1010.4 0.0
22/12:00pm 31.6 38.1 25.0 68 4.7 CALM 0 0 0 0 1010.9 1010.8 0.0
22/11:30am 31.9 37.8 24.7 65 5.1 SE 2 33 1 18 1011.2 1011.1 0.0
22/11:00am 32.0 36.8 25.1 67 4.9 SE 9 33 5 18 1011.6 1011.5 0.0
22/10:30am 31.0 33.3 24.4 68 4.6 SE 20 33 11 18 1011.6 1011.5 0.0
22/10:00am 29.9 30.6 23.6 69 4.3 ESE 26 32 14 17 1011.5 1011.4 0.0
22/09:30am 30.1 30.9 23.8 69 4.4 SE 26 32 14 17 1011.7 1011.6 0.0
22/09:00am 29.3 31.3 24.0 73 3.7 SE 20 30 11 16 1011.7 1011.6 2.0
22/08:30am 28.0 28.5 22.7 73 3.6 ESE 24 32 13 17 1011.6 1011.5 2.0
22/08:00am 28.7 29.8 23.6 74 3.5 ESE 24 30 13 16 1011.4 1011.3 2.0
22/07:30am 28.3 29.5 23.2 74 3.5 ESE 22 33 12 18 1011.0 1010.9 2.0
22/07:00am 27.3 28.3 22.9 77 3.0 ESE 22 35 12 19 1010.8 1010.7 2.0
22/06:30am 27.0 27.1 22.6 77 3.0 ESE 26 32 14 17 1010.6 1010.5 2.0
22/06:00am 27.0 27.0 22.4 76 3.1 ESE 26 35 14 19 1010.3 1010.2 2.0
22/05:30am 27.1 26.9 22.7 77 3.0 ESE 28 33 15 18 1010.0 1009.9 2.0
22/05:00am 27.0 26.2 22.4 76 3.1 SE 30 35 16 19 1009.8 1009.7 2.0
22/04:30am 27.1 27.4 22.9 78 2.9 ESE 26 33 14 18 1009.6 1009.5 2.0
22/04:00am 27.2 26.9 22.6 76 3.1 ESE 28 35 15 19 1009.5 1009.4 2.0
22/03:30am 27.1 26.4 22.5 76 3.1 SE 30 35 16 19 1009.7 1009.6 2.0
22/03:00am 27.2 26.4 22.4 75 3.2 ESE 30 37 16 20 1009.7 1009.6 2.0
22/02:30am 27.2 26.2 22.6 76 3.1 ESE 32 39 17 21 1009.8 1009.7 2.0
22/02:00am 27.2 26.7 22.8 77 3.0 ESE 30 35 16 19 1010.2 1010.1 2.0
22/01:30am 27.2 26.0 22.2 74 3.4 ESE 32 39 17 21 1010.5 1010.4 2.0
22/01:00am 27.2 26.6 22.6 76 3.1 ESE 30 37 16 20 1010.9 1010.8 2.0
22/12:30am 27.3 26.3 22.7 76 3.1 ESE 32 37 17 20 1011.2 1011.1 2.0
22/12:00am 27.2 26.9 22.6 76 3.1 ESE 28 39 15 21 1011.3 1011.2 2.0
 
Date/Time
CST
Temp
°C
App
Temp
°C
Dew
Point
°C
Rel
Hum
%
Delta-T
°C
Wind Press
QNH
hPa
Press
MSL
hPa
Rain since
9am
mm
Dir  Spd
km/h
Gust
km/h
Spd
kts
Gust
kts
21/11:30pm 27.2 26.4 22.4 75 3.2 ESE 30 35 16 19 1011.4 1011.3 2.0
21/11:00pm 27.3 26.8 22.9 77 3.0 ESE 30 35 16 19 1011.3 1011.2 2.0
21/10:30pm 27.2 26.7 22.8 77 3.0 SE 30 37 16 20 1011.3 1011.2 2.0
21/10:00pm 27.4 27.1 23.2 78 2.9 ESE 30 35 16 19 1011.5 1011.4 2.0
21/09:30pm 27.2 26.3 22.8 77 3.0 ESE 32 39 17 21 1011.5 1011.4 2.0
21/09:00pm 27.3 26.2 22.9 77 3.0 ESE 33 43 18 23 1011.3 1011.2 2.0
21/08:30pm 27.3 26.4 23.1 78 2.9 ESE 33 43 18 23 1011.2 1011.1 2.0
21/08:00pm 27.2 26.8 24.1 83 2.1 ESE 33 41 18 22 1010.7 1010.6 2.0
21/07:30pm 26.8 27.0 23.5 82 2.3 ESE 28 43 15 23 1010.2 1010.1 2.0
21/07:00pm 26.2 25.4 23.1 83 2.1 ESE 32 52 17 28 1010.0 1009.9 2.0
21/06:57pm 26.9 27.3 23.8 83 2.1 ESE 28 50 15 27 1009.9 1009.8 1.8
21/06:49pm 27.2 30.2 23.4 80 2.6 ESE 13 39 7 21 1009.8 1009.7 1.8
21/06:30pm 27.1 32.7 23.6 81 2.4 CALM 0 0 0 0 1009.6 1009.5 1.8
21/06:00pm 26.8 32.6 23.9 84 2.0 CALM 0 0 0 0 1009.4 1009.3 1.8
21/05:30pm 26.1 31.7 23.6 86 1.7 CALM 0 0 0 0 1009.4 1009.3 1.8
21/05:00pm 26.1 32.1 24.3 90 1.2 CALM 0 0 0 0 1009.2 1009.1 1.8
21/04:30pm 26.6 32.3 23.7 84 2.0 CALM 0 0 0 0 1009.0 1008.9 0.0
21/04:00pm 27.4 32.8 23.2 78 2.9 CALM 0 0 0 0 1009.0 1008.9 0.0
21/03:30pm 29.1 34.3 22.8 69 4.3 CALM 0 0 0 0 1009.1 1009.0 0.0
21/03:00pm 31.1 36.5 23.2 63 5.4 CALM 0 0 0 0 1009.1 1009.0 0.0
21/02:30pm 31.5 36.9 23.3 61 5.7 CALM 0 0 0 0 1009.4 1009.3 0.0
21/02:00pm 31.7 37.5 24.0 63 5.4 CALM 0 0 0 0 1009.7 1009.6 0.0
21/01:30pm 32.0 38.0 24.3 63 5.4 CALM 0 0 0 0 1010.1 1010.0 0.0
21/01:00pm 31.5 37.1 23.6 63 5.5 CALM 0 0 0 0 1010.5 1010.4 0.0
21/12:30pm 31.3 37.0 23.7 64 5.3 CALM 0 0 0 0 1010.9 1010.8 0.0
21/12:00pm 31.6 37.6 24.2 65 5.2 CALM 0 0 0 0 1011.4 1011.3 0.0
21/11:30am 31.0 36.8 23.9 66 4.9 CALM 0 0 0 0 1011.8 1011.7 0.0
21/11:00am 30.8 36.8 24.2 68 4.6 CALM 0 0 0 0 1012.1 1012.0 0.0
21/10:30am 30.6 36.3 23.8 67 4.7 CALM 0 0 0 0 1012.3 1012.2 0.0
21/10:00am 30.7 36.6 24.1 68 4.6 CALM 0 17 0 9 1012.6 1012.5 0.0
21/09:30am 30.3 35.4 24.0 69 4.4 ESE 4 33 2 18 1012.7 1012.6 0.0
21/09:00am 29.9 33.5 23.8 70 4.2 ESE 11 32 6 17 1012.7 1012.6 0.0
21/08:30am 29.2 31.5 23.4 71 4.0 ESE 17 33 9 18 1012.5 1012.4 0.0
21/08:00am 28.7 30.4 23.1 71 3.8 SE 19 33 10 18 1012.3 1012.2 0.0
21/07:30am 28.0 31.7 22.5 72 3.7 ESE 7 33 4 18 1012.1 1012.0 0.0
21/07:00am 27.5 31.7 22.4 73 3.4 ESE 4 35 2 19 1012.0 1011.9 0.0
21/06:30am 27.2 31.4 22.4 75 3.2 ESE 4 33 2 18 1011.8 1011.7 0.0
21/06:00am 26.9 31.2 21.9 74 3.4 SE 2 35 1 19 1011.5 1011.4 0.0
21/05:30am 27.3 30.9 22.0 73 3.6 ESE 6 35 3 19 1011.4 1011.3 0.0
21/05:00am 27.2 32.0 22.2 74 3.4 CALM 0 33 0 18 1011.2 1011.1 0.0
21/04:30am 27.1 31.9 22.1 74 3.4 CALM 0 7 0 4 1011.2 1011.1 0.0
21/04:00am 27.2 31.7 22.2 74 3.4 SE 2 37 1 20 1011.1 1011.0 0.0
21/03:30am 27.4 30.6 22.4 74 3.4 SE 9 37 5 20 1011.2 1011.1 0.0
21/03:00am 27.4 29.9 22.4 74 3.4 SE 13 39 7 21 1011.2 1011.1 0.0
21/02:30am 27.6 31.1 22.8 75 3.3 SE 9 37 5 20 1011.4 1011.3 0.0
21/02:00am 27.4 31.3 22.6 75 3.3 SE 6 37 3 20 1011.5 1011.4 0.0
21/01:30am 27.4 30.3 22.4 74 3.4 SE 11 39 6 21 1011.6 1011.5 0.0
21/01:00am 27.8 27.0 22.3 72 3.7 ESE 30 43 16 23 1011.7 1011.6 0.0
21/12:30am 27.6 28.7 22.3 73 3.6 ESE 20 41 11 22 1011.9 1011.8 0.0
21/12:00am 27.7 29.1 22.6 74 3.5 ESE 19 41 10 22 1012.0 1011.9 0.0
 
Date/Time
CST
Temp
°C
App
Temp
°C
Dew
Point
°C
Rel
Hum
%
Delta-T
°C
Wind Press
QNH
hPa
Press
MSL
hPa
Rain since
9am
mm
Dir  Spd
km/h
Gust
km/h
Spd
kts
Gust
kts
20/11:30pm 27.7 28.7 22.9 75 3.3 ESE 22 41 12 22 1012.1 1012.0 0.0
20/11:00pm 27.8 28.1 23.0 75 3.3 ESE 26 43 14 23 1012.2 1012.1 0.0
20/10:30pm 27.8 27.1 22.5 73 3.6 ESE 30 44 16 24 1012.3 1012.2 0.0
20/10:00pm 28.0 31.0 23.4 76 3.2 ESE 13 43 7 23 1012.3 1012.2 0.0
20/09:30pm 27.8 32.3 23.6 78 2.9 ESE 6 41 3 22 1012.2 1012.1 0.0
20/09:00pm 27.8 32.1 22.7 74 3.5 SE 4 43 2 23 1012.1 1012.0 0.0
20/08:30pm 27.8 33.2 23.2 76 3.1 CALM 0 0 0 0 1012.1 1012.0 0.0
20/08:00pm 27.9 33.3 23.3 76 3.1 CALM 0 0 0 0 1011.9 1011.8 0.0
20/07:30pm 27.9 33.5 23.5 77 3.0 CALM 0 0 0 0 1011.5 1011.4 0.0
20/07:00pm 27.9 33.5 23.5 77 3.0 CALM 0 0 0 0 1011.3 1011.2 0.0

Other formats

Comma delimited format used in spreadsheet applications
http://www.bom.gov.au/fwo/IDD60801/IDD60801.94147.axf

JavaScript Object Notation format (JSON) in row-major order
http://www.bom.gov.au/fwo/IDD60801/IDD60801.94147.json

Data quality

Most of these data are generated automatically and are frequently updated. Quality checks on data are not normally performed. It is possible for incorrect values to appear. Refer to information at About Latest Weather Observations and please check the disclaimer before using these data.